createdAt,value
2024-03-12T00:00:07.227Z,1002.30
2024-03-12T00:01:07.453Z,1002.31
2024-03-12T00:02:07.328Z,1002.29
2024-03-12T00:03:07.246Z,1002.35
2024-03-12T00:04:07.289Z,1002.36
2024-03-12T00:05:07.153Z,1002.35
2024-03-12T00:06:07.240Z,1002.37
2024-03-12T00:07:07.394Z,1002.36
2024-03-12T00:08:07.255Z,1002.37
2024-03-12T00:09:07.253Z,1002.35
2024-03-12T00:10:07.235Z,1002.41
2024-03-12T00:11:07.258Z,1002.41
2024-03-12T00:12:07.155Z,1002.45
2024-03-12T00:13:07.327Z,1002.45
2024-03-12T00:14:07.187Z,1002.45
2024-03-12T00:15:07.169Z,1002.45
2024-03-12T00:16:07.143Z,1002.51
2024-03-12T00:17:07.027Z,1002.47
2024-03-12T00:18:07.238Z,1002.53
2024-03-12T00:19:07.061Z,1002.51
2024-03-12T00:20:07.006Z,1002.55
2024-03-12T00:21:07.079Z,1002.54
2024-03-12T00:22:07.047Z,1002.56
2024-03-12T00:23:07.005Z,1002.60
2024-03-12T00:24:06.988Z,1002.56
2024-03-12T00:25:07.001Z,1002.61
2024-03-12T00:26:07.016Z,1002.62
2024-03-12T00:27:06.959Z,1002.60
2024-03-12T00:28:07.135Z,1002.60
2024-03-12T00:29:06.952Z,1002.64
2024-03-12T00:30:06.917Z,1002.64
2024-03-12T00:31:07.041Z,1002.63
2024-03-12T00:32:06.881Z,1002.66
2024-03-12T00:33:07.050Z,1002.69
2024-03-12T00:34:06.893Z,1002.73
2024-03-12T00:35:06.852Z,1002.74
2024-03-12T00:36:06.922Z,1002.74
2024-03-12T00:37:06.944Z,1002.68
2024-03-12T00:38:06.810Z,1002.68
2024-03-12T00:39:06.805Z,1002.70
2024-03-12T00:40:06.808Z,1002.72
2024-03-12T00:41:06.837Z,1002.73
2024-03-12T00:42:06.771Z,1002.75
2024-03-12T00:43:06.822Z,1002.78
2024-03-12T00:44:06.858Z,1002.75
2024-03-12T00:45:06.797Z,1002.76
2024-03-12T00:46:07.011Z,1002.79
2024-03-12T00:47:06.726Z,1002.80
2024-03-12T00:48:06.788Z,1002.83
2024-03-12T00:49:06.842Z,1002.84
2024-03-12T00:50:06.676Z,1002.85
2024-03-12T00:51:06.713Z,1002.89
2024-03-12T00:52:06.949Z,1002.84
2024-03-12T00:53:06.688Z,1002.85
2024-03-12T00:54:06.662Z,1002.80
2024-03-12T00:55:06.690Z,1002.80
2024-03-12T00:56:06.662Z,1002.80
2024-03-12T00:57:06.862Z,1002.81
2024-03-12T00:58:06.648Z,1002.82
2024-03-12T00:59:06.673Z,1002.82
2024-03-12T01:00:06.578Z,1002.88
2024-03-12T01:01:06.631Z,1002.86
2024-03-12T01:02:06.578Z,1002.87
2024-03-12T01:03:06.549Z,1002.88
2024-03-12T01:04:06.622Z,1002.88
2024-03-12T01:05:06.537Z,1002.92
2024-03-12T01:06:06.612Z,1002.91
2024-03-12T01:07:06.597Z,1002.96
2024-03-12T01:08:06.499Z,1002.96
2024-03-12T01:09:06.564Z,1002.96
2024-03-12T01:10:06.561Z,1002.98
2024-03-12T01:11:06.936Z,1003.04
2024-03-12T01:12:06.454Z,1002.99
2024-03-12T01:13:06.487Z,1003.02
2024-03-12T01:14:06.450Z,1002.96
2024-03-12T01:15:06.436Z,1003.01
2024-03-12T01:16:06.636Z,1003.05
2024-03-12T01:17:06.443Z,1003.04
2024-03-12T01:18:06.514Z,1003.00
2024-03-12T01:19:06.486Z,1003.05
2024-03-12T01:20:06.443Z,1002.99
2024-03-12T01:21:06.355Z,1003.03
2024-03-12T01:22:06.445Z,1003.06
2024-03-12T01:23:07.520Z,1003.05
2024-03-12T01:24:06.335Z,1003.08
2024-03-12T01:25:06.368Z,1003.06
2024-03-12T01:26:06.373Z,1003.08
2024-03-12T01:27:06.334Z,1003.06
2024-03-12T01:28:07.737Z,1003.08
2024-03-12T01:29:06.284Z,1003.10
2024-03-12T01:30:06.270Z,1003.07
2024-03-12T01:31:06.415Z,1003.09
2024-03-12T01:32:06.252Z,1003.06
2024-03-12T01:33:06.257Z,1003.09
2024-03-12T01:34:06.321Z,1003.14
2024-03-12T01:35:06.213Z,1003.14
2024-03-12T01:36:06.297Z,1003.11
2024-03-12T01:37:06.497Z,1003.15
2024-03-12T01:38:06.190Z,1003.15
2024-03-12T01:39:06.164Z,1003.15
2024-03-12T01:40:06.240Z,1003.17
2024-03-12T01:41:06.246Z,1003.15
2024-03-12T01:42:06.146Z,1003.15
2024-03-12T01:43:06.258Z,1003.15
2024-03-12T01:44:06.133Z,1003.21
2024-03-12T01:45:06.108Z,1003.14
2024-03-12T01:46:06.149Z,1003.21
2024-03-12T01:47:06.228Z,1003.18
2024-03-12T01:48:06.136Z,1003.20
2024-03-12T01:49:06.181Z,1003.23
2024-03-12T01:50:06.054Z,1003.19
2024-03-12T01:51:06.071Z,1003.27
2024-03-12T01:52:06.114Z,1003.21
2024-03-12T01:53:06.019Z,1003.23
2024-03-12T01:54:06.011Z,1003.32
2024-03-12T01:55:06.058Z,1003.23
2024-03-12T01:56:06.044Z,1003.24
2024-03-12T01:57:05.981Z,1003.24
2024-03-12T01:58:06.166Z,1003.21
2024-03-12T01:59:05.963Z,1003.25
2024-03-12T02:00:05.947Z,1003.26
2024-03-12T02:01:06.056Z,1003.21
2024-03-12T02:02:05.923Z,1003.28
2024-03-12T02:03:05.914Z,1003.25
2024-03-12T02:04:06.037Z,1003.23
2024-03-12T02:05:05.886Z,1003.21
2024-03-12T02:06:05.904Z,1003.27
2024-03-12T02:07:05.984Z,1003.27
2024-03-12T02:08:05.947Z,1003.31
2024-03-12T02:09:05.861Z,1003.28
2024-03-12T02:10:05.957Z,1003.32
2024-03-12T02:11:05.859Z,1003.31
2024-03-12T02:12:05.828Z,1003.33
2024-03-12T02:13:06.044Z,1003.34
2024-03-12T02:14:05.899Z,1003.33
2024-03-12T02:15:05.799Z,1003.30
2024-03-12T02:16:05.796Z,1003.35
2024-03-12T02:17:05.761Z,1003.32
2024-03-12T02:18:05.869Z,1003.35
2024-03-12T02:19:05.776Z,1003.28
2024-03-12T02:20:05.765Z,1003.36
2024-03-12T02:21:05.790Z,1003.35
2024-03-12T02:22:05.810Z,1003.33
2024-03-12T02:23:05.708Z,1003.34
2024-03-12T02:24:05.819Z,1003.38
2024-03-12T02:25:05.860Z,1003.31
2024-03-12T02:26:05.703Z,1003.35
2024-03-12T02:27:05.663Z,1003.38
2024-03-12T02:28:05.842Z,1003.37
2024-03-12T02:29:05.708Z,1003.36
2024-03-12T02:30:05.696Z,1003.39
2024-03-12T02:31:05.788Z,1003.39
2024-03-12T02:32:05.604Z,1003.37
2024-03-12T02:33:05.619Z,1003.36
2024-03-12T02:34:05.624Z,1003.38
2024-03-12T02:35:05.584Z,1003.38
2024-03-12T02:36:05.692Z,1003.42
2024-03-12T02:37:05.606Z,1003.40
2024-03-12T02:38:05.544Z,1003.42
2024-03-12T02:39:05.525Z,1003.37
2024-03-12T02:40:05.536Z,1003.41
2024-03-12T02:41:05.612Z,1003.42
2024-03-12T02:42:05.524Z,1003.44
2024-03-12T02:43:05.592Z,1003.48
2024-03-12T02:44:05.496Z,1003.49
2024-03-12T02:45:05.469Z,1003.53
2024-03-12T02:46:05.687Z,1003.54
2024-03-12T02:47:05.436Z,1003.53
2024-03-12T02:48:05.511Z,1003.57
2024-03-12T02:49:05.486Z,1003.56
2024-03-12T02:50:05.418Z,1003.59
2024-03-12T02:51:05.401Z,1003.60
2024-03-12T02:52:05.585Z,1003.59
2024-03-12T02:53:05.373Z,1003.60
2024-03-12T02:54:05.420Z,1003.63
2024-03-12T02:55:05.378Z,1003.58
2024-03-12T02:56:05.358Z,1003.57
2024-03-12T02:57:05.348Z,1003.62
2024-03-12T02:58:05.459Z,1003.64
2024-03-12T02:59:05.318Z,1003.57
2024-03-12T03:00:05.299Z,1003.60
2024-03-12T03:01:05.366Z,1003.62
2024-03-12T03:02:05.362Z,1003.63
2024-03-12T03:03:05.281Z,1003.62
2024-03-12T03:04:05.353Z,1003.64
2024-03-12T03:05:05.308Z,1003.62
2024-03-12T03:06:05.270Z,1003.66
2024-03-12T03:07:05.263Z,1003.64
2024-03-12T03:08:05.228Z,1003.64
2024-03-12T03:09:05.270Z,1003.66
2024-03-12T03:10:05.544Z,1003.65
2024-03-12T03:11:05.229Z,1003.66
2024-03-12T03:12:05.198Z,1003.70
2024-03-12T03:13:05.247Z,1003.66
2024-03-12T03:14:05.160Z,1003.70
2024-03-12T03:15:05.194Z,1003.76
2024-03-12T03:16:05.218Z,1003.75
2024-03-12T03:17:05.142Z,1003.70
2024-03-12T03:18:05.245Z,1003.69
2024-03-12T03:19:05.243Z,1003.74
2024-03-12T03:20:05.145Z,1003.71
2024-03-12T03:21:05.101Z,1003.74
2024-03-12T03:22:05.178Z,1003.74
2024-03-12T03:23:05.053Z,1003.72
2024-03-12T03:24:05.052Z,1003.73
2024-03-12T03:25:05.174Z,1003.75
2024-03-12T03:26:05.118Z,1003.73
2024-03-12T03:27:05.011Z,1003.75
2024-03-12T03:28:05.085Z,1003.76
2024-03-12T03:29:05.053Z,1003.80
2024-03-12T03:30:04.998Z,1003.77
2024-03-12T03:31:05.142Z,1003.79
2024-03-12T03:32:04.963Z,1003.81
2024-03-12T03:33:04.984Z,1003.82
2024-03-12T03:34:05.094Z,1003.84
2024-03-12T03:35:04.959Z,1003.84
2024-03-12T03:36:04.998Z,1003.86
2024-03-12T03:37:05.074Z,1003.91
2024-03-12T03:38:04.908Z,1003.90
2024-03-12T03:39:04.951Z,1003.91
2024-03-12T03:40:05.100Z,1003.87
2024-03-12T03:41:04.872Z,1003.86
2024-03-12T03:42:05.073Z,1003.86
2024-03-12T03:43:05.016Z,1003.89
2024-03-12T03:44:04.881Z,1003.91
2024-03-12T03:45:04.909Z,1003.95
2024-03-12T03:46:05.288Z,1003.99
2024-03-12T03:47:04.894Z,1003.99
2024-03-12T03:48:05.654Z,1003.99
2024-03-12T03:49:04.841Z,1004.00
2024-03-12T03:50:04.838Z,1004.05
2024-03-12T03:51:05.447Z,1004.02
2024-03-12T03:52:04.932Z,1004.04
2024-03-12T03:53:05.520Z,1004.04
2024-03-12T03:54:05.697Z,1004.06
2024-03-12T03:55:04.811Z,1004.06
2024-03-12T03:56:04.767Z,1004.08
2024-03-12T03:57:04.740Z,1004.12
2024-03-12T03:58:04.841Z,1004.10
2024-03-12T03:59:04.726Z,1004.11
2024-03-12T04:00:04.666Z,1004.13
2024-03-12T04:01:04.718Z,1004.15
2024-03-12T04:02:04.718Z,1004.18
2024-03-12T04:03:04.686Z,1004.18
2024-03-12T04:04:04.693Z,1004.17
2024-03-12T04:05:04.604Z,1004.22
2024-03-12T04:06:04.614Z,1004.20
2024-03-12T04:07:04.730Z,1004.21
2024-03-12T04:08:04.694Z,1004.27
2024-03-12T04:09:04.631Z,1004.28
2024-03-12T04:10:04.763Z,1004.27
2024-03-12T04:11:04.747Z,1004.30
2024-03-12T04:12:04.545Z,1004.30
2024-03-12T04:13:04.626Z,1004.32
2024-03-12T04:14:04.523Z,1004.32
2024-03-12T04:15:04.539Z,1004.32
2024-03-12T04:16:04.562Z,1004.34
2024-03-12T04:17:04.499Z,1004.36
2024-03-12T04:18:04.511Z,1004.35
2024-03-12T04:19:04.520Z,1004.38
2024-03-12T04:20:04.456Z,1004.41
2024-03-12T04:21:04.444Z,1004.39
2024-03-12T04:22:04.619Z,1004.39
2024-03-12T04:23:04.654Z,1004.41
2024-03-12T04:24:04.406Z,1004.40
2024-03-12T04:25:04.561Z,1004.35
2024-03-12T04:26:04.399Z,1004.41
2024-03-12T04:27:04.418Z,1004.38
2024-03-12T04:28:04.414Z,1004.40
2024-03-12T04:29:04.421Z,1004.38
2024-03-12T04:30:04.362Z,1004.46
2024-03-12T04:31:04.405Z,1004.47
2024-03-12T04:32:04.338Z,1004.48
2024-03-12T04:33:04.451Z,1004.52
2024-03-12T04:34:04.439Z,1004.46
2024-03-12T04:35:04.291Z,1004.51
2024-03-12T04:36:04.291Z,1004.51
2024-03-12T04:37:04.339Z,1004.54
2024-03-12T04:38:04.357Z,1004.53
2024-03-12T04:39:04.389Z,1004.56
2024-03-12T04:40:04.334Z,1004.55
2024-03-12T04:41:04.272Z,1004.58
2024-03-12T04:42:04.228Z,1004.52
2024-03-12T04:43:04.236Z,1004.60
2024-03-12T04:44:04.266Z,1004.56
2024-03-12T04:45:04.298Z,1004.60
2024-03-12T04:46:04.253Z,1004.62
2024-03-12T04:47:04.165Z,1004.65
2024-03-12T04:48:04.204Z,1004.63
2024-03-12T04:49:04.277Z,1004.68
2024-03-12T04:50:04.241Z,1004.68
2024-03-12T04:51:04.115Z,1004.70
2024-03-12T04:52:04.171Z,1004.65
2024-03-12T04:53:04.098Z,1004.75
2024-03-12T04:54:04.213Z,1004.69
2024-03-12T04:55:04.263Z,1004.67
2024-03-12T04:56:04.271Z,1004.70
2024-03-12T04:57:04.056Z,1004.76
2024-03-12T04:58:04.193Z,1004.75
2024-03-12T04:59:04.089Z,1004.81
2024-03-12T05:00:04.329Z,1004.77
2024-03-12T05:01:04.114Z,1004.81
2024-03-12T05:02:04.214Z,1004.86
2024-03-12T05:03:04.147Z,1004.89
2024-03-12T05:04:11.997Z,1004.89
2024-03-12T05:05:05.035Z,1004.87
2024-03-12T05:06:03.967Z,1004.90
2024-03-12T05:07:04.008Z,1004.89
2024-03-12T05:08:03.948Z,1004.90
2024-03-12T05:09:03.955Z,1004.91
2024-03-12T05:10:04.053Z,1004.90
2024-03-12T05:11:03.950Z,1004.93
2024-03-12T05:12:03.909Z,1004.92
2024-03-12T05:13:03.984Z,1004.96
2024-03-12T05:14:03.891Z,1004.99
2024-03-12T05:15:03.875Z,1004.96
2024-03-12T05:16:03.961Z,1004.98
2024-03-12T05:17:03.876Z,1005.03
2024-03-12T05:18:04.006Z,1005.01
2024-03-12T05:19:04.004Z,1005.04
2024-03-12T05:20:03.808Z,1005.07
2024-03-12T05:21:03.885Z,1005.08
2024-03-12T05:22:03.916Z,1005.10
2024-03-12T05:23:03.782Z,1005.14
2024-03-12T05:24:03.780Z,1005.11
2024-03-12T05:25:03.886Z,1005.14
2024-03-12T05:26:03.844Z,1005.18
2024-03-12T05:27:04.843Z,1005.17
2024-03-12T05:28:03.762Z,1005.18
2024-03-12T05:29:03.726Z,1005.21
2024-03-12T05:30:03.710Z,1005.19
2024-03-12T05:31:03.831Z,1005.21
2024-03-12T05:32:03.748Z,1005.24
2024-03-12T05:33:03.758Z,1005.25
2024-03-12T05:34:03.926Z,1005.24
2024-03-12T05:35:03.669Z,1005.21
2024-03-12T05:36:03.793Z,1005.25
2024-03-12T05:37:03.700Z,1005.27
2024-03-12T05:38:04.550Z,1005.24
2024-03-12T05:39:03.639Z,1005.29
2024-03-12T05:40:03.674Z,1005.36
2024-03-12T05:41:03.603Z,1005.29
2024-03-12T05:42:03.655Z,1005.31
2024-03-12T05:43:03.716Z,1005.31
2024-03-12T05:44:03.570Z,1005.34
2024-03-12T05:45:03.549Z,1005.37
2024-03-12T05:46:03.668Z,1005.37
2024-03-12T05:47:03.534Z,1005.41
2024-03-12T05:48:03.653Z,1005.40
2024-03-12T05:49:03.573Z,1005.43
2024-03-12T05:50:03.736Z,1005.44
2024-03-12T05:51:03.476Z,1005.46
2024-03-12T05:52:03.489Z,1005.45
2024-03-12T05:53:03.459Z,1005.46
2024-03-12T05:54:03.559Z,1005.47
2024-03-12T05:55:03.532Z,1005.48
2024-03-12T05:56:03.428Z,1005.55
2024-03-12T05:57:03.435Z,1005.52
2024-03-12T05:58:03.451Z,1005.49
2024-03-12T05:59:03.433Z,1005.59
2024-03-12T06:00:03.517Z,1005.55
2024-03-12T06:01:03.434Z,1005.54
2024-03-12T06:02:03.375Z,1005.59
2024-03-12T06:03:03.392Z,1005.59
2024-03-12T06:04:03.382Z,1005.61
2024-03-12T06:05:03.497Z,1005.63
2024-03-12T06:06:03.358Z,1005.62
2024-03-12T06:07:03.471Z,1005.69
2024-03-12T06:08:03.338Z,1005.70
2024-03-12T06:09:03.292Z,1005.71
2024-03-12T06:10:03.541Z,1005.76
2024-03-12T06:11:03.335Z,1005.67
2024-03-12T06:12:03.278Z,1005.73
2024-03-12T06:13:03.289Z,1005.70
2024-03-12T06:14:04.478Z,1005.73
2024-03-12T06:15:03.294Z,1005.76
2024-03-12T06:16:03.299Z,1005.78
2024-03-12T06:17:03.239Z,1005.76
2024-03-12T06:18:03.357Z,1005.71
2024-03-12T06:19:03.216Z,1005.77
2024-03-12T06:20:03.191Z,1005.82
2024-03-12T06:21:03.268Z,1005.78
2024-03-12T06:22:03.285Z,1005.82
2024-03-12T06:23:03.205Z,1005.83
2024-03-12T06:24:03.132Z,1005.80
2024-03-12T06:25:03.206Z,1005.86
2024-03-12T06:26:03.118Z,1005.89
2024-03-12T06:27:03.348Z,1005.91
2024-03-12T06:28:03.138Z,1005.88
2024-03-12T06:29:03.080Z,1005.94
2024-03-12T06:30:03.068Z,1005.95
2024-03-12T06:31:03.152Z,1005.96
2024-03-12T06:32:03.098Z,1005.94
2024-03-12T06:33:03.084Z,1005.97
2024-03-12T06:34:03.027Z,1005.98
2024-03-12T06:35:03.020Z,1005.95
2024-03-12T06:36:03.090Z,1006.07
2024-03-12T06:37:03.022Z,1006.07
2024-03-12T06:38:02.987Z,1006.04
2024-03-12T06:39:02.969Z,1006.10
2024-03-12T06:40:03.033Z,1006.09
2024-03-12T06:41:02.944Z,1006.06
2024-03-12T06:42:05.787Z,1006.13
2024-03-12T06:43:03.000Z,1006.17
2024-03-12T06:44:02.913Z,1006.22
2024-03-12T06:45:03.015Z,1006.19
2024-03-12T06:46:02.914Z,1006.22
2024-03-12T06:47:03.563Z,1006.19
2024-03-12T06:48:02.960Z,1006.27
2024-03-12T06:49:02.929Z,1006.21
2024-03-12T06:50:04.179Z,1006.27
2024-03-12T06:51:02.855Z,1006.25
2024-03-12T06:52:02.945Z,1006.31
2024-03-12T06:53:02.893Z,1006.29
2024-03-12T06:54:02.814Z,1006.30
2024-03-12T06:55:02.900Z,1006.32
2024-03-12T06:56:02.789Z,1006.35
2024-03-12T06:57:02.784Z,1006.37
2024-03-12T06:58:02.815Z,1006.34
2024-03-12T06:59:02.892Z,1006.38
2024-03-12T07:00:02.747Z,1006.38
2024-03-12T07:01:02.872Z,1006.42
2024-03-12T07:02:02.776Z,1006.37
2024-03-12T07:03:02.729Z,1006.40
2024-03-12T07:04:02.782Z,1006.43
2024-03-12T07:05:02.702Z,1006.47
2024-03-12T07:06:02.716Z,1006.47
2024-03-12T07:07:02.693Z,1006.48
2024-03-12T07:08:02.663Z,1006.47
2024-03-12T07:09:02.655Z,1006.47
2024-03-12T07:10:02.846Z,1006.49
2024-03-12T07:11:02.748Z,1006.53
2024-03-12T07:12:02.618Z,1006.50
2024-03-12T07:13:02.652Z,1006.53
2024-03-12T07:14:02.593Z,1006.56
2024-03-12T07:15:02.808Z,1006.56
2024-03-12T07:16:02.708Z,1006.58
2024-03-12T07:17:02.584Z,1006.56
2024-03-12T07:18:02.606Z,1006.64
2024-03-12T07:19:02.595Z,1006.61
2024-03-12T07:20:02.547Z,1006.59
2024-03-12T07:21:02.578Z,1006.63
2024-03-12T07:22:02.611Z,1006.62
2024-03-12T07:23:02.520Z,1006.61
2024-03-12T07:24:02.493Z,1006.67
2024-03-12T07:25:02.564Z,1006.64
2024-03-12T07:26:02.522Z,1006.67
2024-03-12T07:27:02.469Z,1006.65
2024-03-12T07:28:02.529Z,1006.74
2024-03-12T07:29:02.504Z,1006.71
2024-03-12T07:30:02.476Z,1006.75
2024-03-12T07:31:02.463Z,1006.70
2024-03-12T07:32:02.504Z,1006.74
2024-03-12T07:33:02.428Z,1006.75
2024-03-12T07:34:02.378Z,1006.73
2024-03-12T07:35:02.386Z,1006.77
2024-03-12T07:36:02.381Z,1006.75
2024-03-12T07:37:02.445Z,1006.78
2024-03-12T07:38:02.419Z,1006.83
2024-03-12T07:39:02.372Z,1006.85
2024-03-12T07:40:02.448Z,1006.81
2024-03-12T07:41:03.034Z,1006.92
2024-03-12T07:42:02.356Z,1006.86
2024-03-12T07:43:02.352Z,1006.88
2024-03-12T07:44:02.300Z,1006.90
2024-03-12T07:45:02.359Z,1006.92
2024-03-12T07:46:02.324Z,1006.97
2024-03-12T07:47:02.249Z,1006.96
2024-03-12T07:48:02.279Z,1006.97
2024-03-12T07:49:02.291Z,1006.96
2024-03-12T07:50:02.303Z,1007.00
2024-03-12T07:51:06.078Z,1006.96
2024-03-12T07:52:02.222Z,1007.00
2024-03-12T07:53:02.874Z,1006.99
2024-03-12T07:54:02.208Z,1006.97
2024-03-12T07:55:02.294Z,1006.98
2024-03-12T07:56:02.580Z,1007.00
2024-03-12T07:57:02.192Z,1007.02
2024-03-12T07:58:02.167Z,1006.97
2024-03-12T07:59:02.130Z,1007.03
2024-03-12T08:00:02.171Z,1007.00
2024-03-12T08:01:02.195Z,1007.01
2024-03-12T08:02:02.127Z,1007.01
2024-03-12T08:03:02.349Z,1007.01
2024-03-12T08:04:02.204Z,1007.00
2024-03-12T08:05:02.078Z,1007.00
2024-03-12T08:06:02.167Z,1007.03
2024-03-12T08:07:02.105Z,1007.01
2024-03-12T08:08:02.123Z,1006.98
2024-03-12T08:09:02.075Z,1007.06
2024-03-12T08:10:02.156Z,1007.07
2024-03-12T08:11:02.000Z,1007.06
2024-03-12T08:12:02.000Z,1007.07
2024-03-12T08:13:02.013Z,1007.09
2024-03-12T08:14:02.022Z,1007.10
2024-03-12T08:15:01.981Z,1007.08
2024-03-12T08:16:02.072Z,1007.14
2024-03-12T08:17:01.917Z,1007.08
2024-03-12T08:18:09.989Z,1007.12
2024-03-12T08:19:02.992Z,1007.12
2024-03-12T08:20:01.970Z,1007.13
2024-03-12T08:21:01.885Z,1007.13
2024-03-12T08:22:01.903Z,1007.16
2024-03-12T08:23:01.867Z,1007.17
2024-03-12T08:24:01.875Z,1007.19
2024-03-12T08:25:01.955Z,1007.20
2024-03-12T08:26:01.900Z,1007.18
2024-03-12T08:27:01.842Z,1007.15
2024-03-12T08:28:01.974Z,1007.16
2024-03-12T08:29:01.804Z,1007.16
2024-03-12T08:30:01.817Z,1007.16
2024-03-12T08:31:08.050Z,1007.18
2024-03-12T08:32:03.106Z,1007.19
2024-03-12T08:33:01.850Z,1007.20
2024-03-12T08:34:01.858Z,1007.19
2024-03-12T08:35:01.736Z,1007.17
2024-03-12T08:36:01.813Z,1007.16
2024-03-12T08:37:01.791Z,1007.16
2024-03-12T08:38:01.704Z,1007.16
2024-03-12T08:39:01.970Z,1007.18
2024-03-12T08:40:01.763Z,1007.12
2024-03-12T08:41:01.680Z,1007.18
2024-03-12T08:42:01.710Z,1007.21
2024-03-12T08:43:04.343Z,1007.20
2024-03-12T08:44:01.692Z,1007.22
2024-03-12T08:45:01.686Z,1007.24
2024-03-12T08:46:01.648Z,1007.29
2024-03-12T08:47:01.616Z,1007.21
2024-03-12T08:48:01.677Z,1007.23
2024-03-12T08:49:01.610Z,1007.29
2024-03-12T08:50:01.680Z,1007.25
2024-03-12T08:51:01.624Z,1007.34
2024-03-12T08:52:01.793Z,1007.37
2024-03-12T08:53:01.546Z,1007.34
2024-03-12T08:54:01.605Z,1007.33
2024-03-12T08:55:01.648Z,1007.34
2024-03-12T08:56:01.523Z,1007.33
2024-03-12T08:57:01.510Z,1007.35
2024-03-12T08:58:01.601Z,1007.32
2024-03-12T08:59:01.664Z,1007.48
2024-03-12T09:00:05.337Z,1007.40
2024-03-12T09:01:01.591Z,1007.40
2024-03-12T09:02:01.697Z,1007.42
2024-03-12T09:03:01.464Z,1007.48
2024-03-12T09:04:01.527Z,1007.53
2024-03-12T09:05:01.504Z,1007.47
2024-03-12T09:06:01.445Z,1007.54
2024-03-12T09:07:01.547Z,1007.52
2024-03-12T09:08:01.391Z,1007.53
2024-03-12T09:09:01.429Z,1007.52
2024-03-12T09:10:01.631Z,1007.57
2024-03-12T09:11:01.381Z,1007.56
2024-03-12T09:12:01.380Z,1007.57
2024-03-12T09:13:01.360Z,1007.61
2024-03-12T09:14:01.355Z,1007.63
2024-03-12T09:15:01.990Z,1007.64
2024-03-12T09:16:01.438Z,1007.64
2024-03-12T09:17:01.301Z,1007.65
2024-03-12T09:18:01.291Z,1007.70
2024-03-12T09:19:01.320Z,1007.73
2024-03-12T09:20:01.303Z,1007.69
2024-03-12T09:21:01.308Z,1007.70
2024-03-12T09:22:01.281Z,1007.72
2024-03-12T09:23:01.305Z,1007.75
2024-03-12T09:24:02.513Z,1007.77
2024-03-12T09:25:01.263Z,1007.74
2024-03-12T09:26:01.190Z,1007.76
2024-03-12T09:27:01.216Z,1007.75
2024-03-12T09:28:01.260Z,1007.77
2024-03-12T09:29:01.315Z,1007.80
2024-03-12T09:30:01.155Z,1007.78
2024-03-12T09:31:01.214Z,1007.83
2024-03-12T09:32:01.173Z,1007.85
2024-03-12T09:33:01.152Z,1007.85
2024-03-12T09:34:01.193Z,1007.82
2024-03-12T09:35:01.274Z,1007.83
2024-03-12T09:36:01.234Z,1007.84
2024-03-12T09:37:01.163Z,1007.88
2024-03-12T09:38:01.072Z,1007.88
2024-03-12T09:39:01.126Z,1007.85
2024-03-12T09:40:01.163Z,1007.83
2024-03-12T09:41:01.147Z,1007.86
2024-03-12T09:42:01.072Z,1007.85
2024-03-12T09:43:01.052Z,1007.82
2024-03-12T09:44:02.484Z,1007.89
2024-03-12T09:45:00.995Z,1007.90
2024-03-12T09:46:01.012Z,1007.90
2024-03-12T09:47:00.961Z,1007.93
2024-03-12T09:48:01.030Z,1007.96
2024-03-12T09:49:04.807Z,1007.96
2024-03-12T09:50:02.219Z,1007.95
2024-03-12T09:51:00.948Z,1008.03
2024-03-12T09:52:01.663Z,1007.96
2024-03-12T09:53:00.936Z,1008.01
2024-03-12T09:54:00.896Z,1008.00
2024-03-12T09:55:00.914Z,1008.02
2024-03-12T09:56:01.912Z,1008.06
2024-03-12T09:57:00.910Z,1008.04
2024-03-12T09:58:00.907Z,1008.10
2024-03-12T09:59:01.144Z,1008.07
2024-03-12T10:00:00.867Z,1008.07
2024-03-12T10:01:00.961Z,1008.09
2024-03-12T10:02:01.728Z,1008.13
2024-03-12T10:03:00.915Z,1008.08
2024-03-12T10:04:00.901Z,1008.12
2024-03-12T10:05:00.776Z,1008.11
2024-03-12T10:06:00.763Z,1008.18
2024-03-12T10:07:00.854Z,1008.11
2024-03-12T10:08:03.262Z,1008.15
2024-03-12T10:09:00.801Z,1008.13
2024-03-12T10:10:00.881Z,1008.11
2024-03-12T10:11:00.753Z,1008.13
2024-03-12T10:12:00.714Z,1008.08
2024-03-12T10:13:00.747Z,1008.09
2024-03-12T10:14:00.832Z,1008.07
2024-03-12T10:15:00.696Z,1008.04
2024-03-12T10:16:01.365Z,1008.06
2024-03-12T10:17:00.667Z,1008.11
2024-03-12T10:18:00.701Z,1008.13
2024-03-12T10:19:00.698Z,1008.16
2024-03-12T10:20:01.444Z,1008.12
2024-03-12T10:21:00.616Z,1008.16
2024-03-12T10:22:00.692Z,1008.17
2024-03-12T10:23:00.666Z,1008.13
2024-03-12T10:24:00.563Z,1008.14
2024-03-12T10:25:00.624Z,1008.12
2024-03-12T10:26:00.560Z,1008.16
2024-03-12T10:27:00.555Z,1008.09
2024-03-12T10:28:06.988Z,1008.14
2024-03-12T10:29:01.603Z,1008.15
2024-03-12T10:30:00.529Z,1008.17
2024-03-12T10:31:00.570Z,1008.16
2024-03-12T10:32:00.530Z,1008.20
2024-03-12T10:33:00.539Z,1008.17
2024-03-12T10:34:00.554Z,1008.19
2024-03-12T10:35:00.493Z,1008.21
2024-03-12T10:36:00.444Z,1008.19
2024-03-12T10:37:00.564Z,1008.21
2024-03-12T10:38:00.524Z,1008.21
2024-03-12T10:39:00.449Z,1008.21
2024-03-12T10:40:00.533Z,1008.24
2024-03-12T10:41:00.397Z,1008.24
2024-03-12T10:42:01.176Z,1008.22
2024-03-12T10:43:00.396Z,1008.26
2024-03-12T10:44:00.358Z,1008.28
2024-03-12T10:45:00.372Z,1008.24
2024-03-12T10:46:00.477Z,1008.22
2024-03-12T10:47:00.315Z,1008.23
2024-03-12T10:48:00.404Z,1008.24
2024-03-12T10:49:00.441Z,1008.26
2024-03-12T10:50:00.332Z,1008.23
2024-03-12T10:51:00.287Z,1008.23
2024-03-12T10:52:00.446Z,1008.19
2024-03-12T10:53:00.291Z,1008.22
2024-03-12T10:54:00.257Z,1008.23
2024-03-12T10:55:05.875Z,1008.20
2024-03-12T10:56:03.092Z,1008.22
2024-03-12T10:57:00.256Z,1008.23
2024-03-12T10:58:00.290Z,1008.21
2024-03-12T10:59:00.227Z,1008.23
2024-03-12T11:00:00.199Z,1008.25
2024-03-12T11:01:00.256Z,1008.24
2024-03-12T11:02:00.288Z,1008.23
2024-03-12T11:03:00.170Z,1008.22
2024-03-12T11:04:00.289Z,1008.21
2024-03-12T11:05:00.208Z,1008.28
2024-03-12T11:06:00.174Z,1008.25
2024-03-12T11:07:00.168Z,1008.28
2024-03-12T11:08:00.139Z,1008.27
2024-03-12T11:09:00.143Z,1008.23
2024-03-12T11:10:00.169Z,1008.31
2024-03-12T11:11:00.104Z,1008.32
2024-03-12T11:12:00.120Z,1008.31
2024-03-12T11:13:00.112Z,1008.33
2024-03-12T11:14:00.043Z,1008.29
2024-03-12T11:15:00.026Z,1008.26
2024-03-12T11:16:00.080Z,1008.28
2024-03-12T11:17:00.038Z,1008.24
2024-03-12T11:18:00.037Z,1008.28
2024-03-12T11:19:00.013Z,1008.26
2024-03-12T11:20:02.761Z,1008.27
2024-03-12T11:20:59.960Z,1008.26
2024-03-12T11:21:59.998Z,1008.31
2024-03-12T11:22:59.938Z,1008.27
2024-03-12T11:23:59.942Z,1008.35
2024-03-12T11:24:59.958Z,1008.31
2024-03-12T11:25:59.917Z,1008.30
2024-03-12T11:26:59.933Z,1008.27
2024-03-12T11:27:59.940Z,1008.33
2024-03-12T11:28:59.924Z,1008.31
2024-03-12T11:29:59.881Z,1008.35
2024-03-12T11:30:59.873Z,1008.38
2024-03-12T11:31:59.851Z,1008.36
2024-03-12T11:32:59.866Z,1008.35
2024-03-12T11:33:59.881Z,1008.37
2024-03-12T11:34:59.912Z,1008.34
2024-03-12T11:35:59.829Z,1008.36
2024-03-12T11:36:59.816Z,1008.34
2024-03-12T11:38:00.024Z,1008.36
2024-03-12T11:38:59.816Z,1008.34
2024-03-12T11:40:00.562Z,1008.35
2024-03-12T11:40:59.761Z,1008.37
2024-03-12T11:41:59.752Z,1008.42
2024-03-12T11:42:59.762Z,1008.37
2024-03-12T11:43:59.829Z,1008.39
2024-03-12T11:44:59.778Z,1008.36
2024-03-12T11:46:03.503Z,1008.41
2024-03-12T11:46:59.688Z,1008.39
2024-03-12T11:47:59.771Z,1008.38
2024-03-12T11:48:59.721Z,1008.42
2024-03-12T11:50:03.057Z,1008.43
2024-03-12T11:50:59.632Z,1008.41
2024-03-12T11:51:59.723Z,1008.37
2024-03-12T11:52:59.644Z,1008.43
2024-03-12T11:53:59.608Z,1008.44
2024-03-12T11:54:59.768Z,1008.39
2024-03-12T11:56:00.998Z,1008.40
2024-03-12T11:56:59.600Z,1008.40
2024-03-12T11:57:59.590Z,1008.45
2024-03-12T11:59:05.560Z,1008.46
2024-03-12T12:00:00.629Z,1008.47
2024-03-12T12:00:59.603Z,1008.50
2024-03-12T12:02:01.021Z,1008.49
2024-03-12T12:02:59.508Z,1008.49
2024-03-12T12:04:00.292Z,1008.49
2024-03-12T12:04:59.491Z,1008.48